Aeroporto :
LOGIN :

Iscrizione | Disclaimer

   EN    FR    IT 

 










Sommario :    VFR   VFR Marginale   IFR   IFR Intensivo   IFR Molto Intensivo
Visibilità : 
Base nubi : 
>= 8 km
>= 3000ft
5 / 8 km
1000 / 3000 ft
1500m / 5 km
500 / 1000 ft
800 / 1500m
200 / 500 ft
< 800m
< 200 ft
Simboli :   Temporali  Nebbia  Neve Forte  Precipitazioni Forti  Vento > 20 kt
SIGMETs :   Varie  Temporali  Ghiacco  Turbolenza  Onda orograficha  Ceneri Vulcaniche






- Altitudine del aeroporto : 87 ft
- Codice IATA : FSC


LFKF - Figari

ULTIMO METAR :
  • 230230Z AUTO VRB02KT 9000 SCT010 21/20 Q1014

METARs OBSOLETI :
  • 230200Z AUTO VRB01KT 9000 NSC 21/20 Q1014
  • 230130Z AUTO VRB02KT CAVOK 21/21 Q1014
  • 230100Z AUTO VRB03KT CAVOK 21/20 Q1014
  • 230030Z AUTO VRB02KT CAVOK 21/20 Q1014
  • 230000Z AUTO VRB01KT CAVOK 22/21 Q1014
  • 222330Z AUTO 22004KT CAVOK 23/22 Q1015
  • 222300Z AUTO VRB03KT CAVOK 23/21 Q1014
  • 222230Z AUTO 26004KT 220V330 CAVOK 23/21 Q1014
  • 222200Z AUTO VRB02KT CAVOK 23/21 Q1014

TAF TAF LFKF
Valido dal 22 a 15 ore il 23 a 15 ore UTC


221400Z 2215/2315 27010KT 9999 FEW025 BKN050
BECMG 2219/2221 VRB05KT
BECMG 2305/2307 26012KT



MetMap, La meteo Aeronautica in un colpo d'occhio ! - Copyright ORBIFLY Dicembre 2007 - Disclaimer

ORBIFLY MET'MAP TEAM :

Programmazione e sviluppo : Alexandra Zaïnal
Concezione : Baudouin d'Aumeries
Supporto tecnico e logistico : Manuel Goepfert
Aiuto : Marc-Olivier Méhu
Aiuto per la traduzione : Arnaldo La Scala




FONTI E CREDITI :

   NOAA